Time;durP1;ratioP1;P1;durP2;ratioP2;P2;SDS_P1;SDS_P2;PMS_P1;PMS_P2;Temp;Humidity;BMP_temperature;BMP_pressure;BME280_temperature;BME280_humidity;BME280_pressure;Samples;Min_cycle;Max_cycle;Signal;HPM_P1;HPM_P2
2021/11/16 00:02:04;;;;;;;19.17;10.43;;;6.90;88.40;;;;;;5064779;28;20021;-78
2021/11/16 00:04:30;;;;;;;19.50;11.63;;;6.90;88.50;;;;;;5064889;28;20039;-80
2021/11/16 00:06:55;;;;;;;22.10;10.93;;;6.90;88.30;;;;;;5070795;28;20044;-79
2021/11/16 00:09:22;;;;;;;17.85;10.63;;;6.90;88.60;;;;;;5072615;28;20475;-78
2021/11/16 00:11:48;;;;;;;18.65;10.90;;;6.90;88.50;;;;;;5067731;28;20396;-77
2021/11/16 00:14:15;;;;;;;21.80;11.52;;;6.90;88.60;;;;;;5073711;28;20467;-78
2021/11/16 00:16:42;;;;;;;22.20;13.57;;;6.90;88.70;;;;;;5069421;28;20020;-78
2021/11/16 00:19:12;;;;;;;23.08;13.18;;;6.90;88.60;;;;;;5059710;28;20060;-76
2021/11/16 00:21:40;;;;;;;20.98;12.20;;;6.90;88.70;;;;;;5067392;28;20077;-80
2021/11/16 00:24:13;;;;;;;27.58;13.15;;;7.00;88.90;;;;;;5069371;27;20356;-80
2021/11/16 00:26:39;;;;;;;21.90;12.88;;;6.90;88.70;;;;;;5070450;28;20033;-76
2021/11/16 00:29:05;;;;;;;26.63;14.73;;;6.90;88.90;;;;;;5071531;28;20405;-77
2021/11/16 00:31:31;;;;;;;25.23;13.80;;;6.80;89.00;;;;;;5074305;28;20036;-78
2021/11/16 00:33:58;;;;;;;24.63;14.15;;;6.80;89.30;;;;;;5063197;28;20402;-80
2021/11/16 00:36:24;;;;;;;26.83;14.85;;;6.80;89.40;;;;;;5067699;28;20064;-79
2021/11/16 00:38:50;;;;;;;27.05;15.63;;;6.80;89.50;;;;;;5070162;28;20518;-79
2021/11/16 00:41:16;;;;;;;26.92;15.60;;;6.80;89.40;;;;;;5053602;28;20055;-75
2021/11/16 00:43:42;;;;;;;29.70;16.92;;;6.90;89.30;;;;;;5050979;28;20064;-80
2021/11/16 00:46:08;;;;;;;29.15;16.80;;;6.90;89.50;;;;;;5050953;28;20025;-80
2021/11/16 00:48:33;;;;;;;27.92;16.27;;;6.80;89.60;;;;;;5051405;28;20063;-77
2021/11/16 00:51:02;;;;;;;28.63;16.77;;;6.90;89.60;;;;;;5058123;28;20358;-79
2021/11/16 00:53:31;;;;;;;30.30;18.05;;;6.80;89.60;;;;;;5072750;28;20028;-80
2021/11/16 00:55:59;;;;;;;31.35;18.38;;;6.80;89.80;;;;;;5064029;28;20762;-79
2021/11/16 00:58:25;;;;;;;31.67;17.95;;;6.80;90.00;;;;;;5072832;28;20036;-77
2021/11/16 01:00:51;;;;;;;32.20;18.60;;;6.80;89.90;;;;;;5064196;28;20044;-78
2021/11/16 01:03:18;;;;;;;31.17;18.05;;;6.80;89.90;;;;;;5065318;28;20471;-80
2021/11/16 01:05:44;;;;;;;31.95;18.40;;;6.80;89.90;;;;;;5076439;28;20107;-80
2021/11/16 01:08:10;;;;;;;34.35;18.42;;;6.80;90.00;;;;;;5078073;27;20147;-76
2021/11/16 01:10:39;;;;;;;35.35;20.00;;;6.80;90.00;;;;;;5074126;28;20172;-78
2021/11/16 01:13:04;;;;;;;31.42;18.13;;;6.80;90.00;;;;;;5077819;28;20067;-76
2021/11/16 01:15:31;;;;;;;35.83;18.95;;;6.80;90.10;;;;;;5084164;28;20075;-78
2021/11/16 01:17:57;;;;;;;35.45;19.10;;;6.70;90.20;;;;;;5079308;28;20024;-78
2021/11/16 01:20:24;;;;;;;34.85;19.02;;;6.70;90.20;;;;;;5077593;28;20036;-78
2021/11/16 01:22:53;;;;;;;33.20;18.67;;;6.80;90.50;;;;;;5083585;28;20059;-78
2021/11/16 01:25:20;;;;;;;38.33;21.58;;;6.90;90.60;;;;;;5076074;28;20123;-78
2021/11/16 01:27:46;;;;;;;40.28;22.42;;;6.80;90.40;;;;;;5079161;28;20041;-78
2021/11/16 01:30:17;;;;;;;40.33;21.30;;;6.80;90.20;;;;;;5067801;28;20123;-77
2021/11/16 01:32:47;;;;;;;37.38;20.63;;;6.80;90.30;;;;;;5073669;28;20040;-77
2021/11/16 01:35:14;;;;;;;39.70;21.02;;;6.80;90.40;;;;;;5072799;28;20072;-79
2021/11/16 01:37:40;;;;;;;37.50;22.02;;;6.80;90.40;;;;;;5074835;28;20025;-76
2021/11/16 01:40:10;;;;;;;44.40;22.48;;;6.80;90.40;;;;;;5071623;28;20094;-79
2021/11/16 01:42:36;;;;;;;38.40;20.58;;;6.80;90.40;;;;;;5073937;28;20477;-77
2021/11/16 01:45:03;;;;;;;39.72;21.52;;;6.80;90.50;;;;;;5062389;28;20135;-78
2021/11/16 01:47:29;;;;;;;39.88;19.88;;;6.90;90.40;;;;;;5074084;28;20040;-77
2021/11/16 01:49:55;;;;;;;39.53;20.65;;;6.90;90.40;;;;;;5084284;28;20031;-77
2021/11/16 01:52:20;;;;;;;41.25;20.90;;;6.80;90.30;;;;;;5082635;28;20928;-79
2021/11/16 01:54:46;;;;;;;40.60;21.05;;;6.90;90.30;;;;;;5079895;28;20081;-76
2021/11/16 01:57:12;;;;;;;38.88;20.65;;;6.90;90.40;;;;;;5082659;28;20036;-79
2021/11/16 01:59:38;;;;;;;37.92;20.92;;;6.90;90.40;;;;;;5076126;28;20040;-76
2021/11/16 02:02:04;;;;;;;38.55;20.73;;;6.90;90.40;;;;;;5072667;28;20517;-78
2021/11/16 02:04:31;;;;;;;36.90;20.75;;;6.90;90.40;;;;;;5078425;28;20047;-76
2021/11/16 02:06:57;;;;;;;39.47;21.35;;;6.90;90.40;;;;;;5070054;28;20127;-77
2021/11/16 02:09:23;;;;;;;40.75;21.77;;;6.90;90.10;;;;;;5069518;28;20040;-76
2021/11/16 02:11:48;;;;;;;44.00;22.75;;;6.80;90.10;;;;;;5064785;28;20040;-77
2021/11/16 02:14:16;;;;;;;38.72;22.92;;;6.80;90.10;;;;;;5063653;28;20040;-78
2021/11/16 02:16:44;;;;;;;39.63;22.40;;;6.90;90.10;;;;;;5072450;28;20048;-76
2021/11/16 02:19:13;;;;;;;44.33;25.67;;;6.80;90.00;;;;;;5080340;28;20391;-77
2021/11/16 02:21:39;;;;;;;39.25;22.50;;;6.80;90.10;;;;;;5078207;28;20035;-78
2021/11/16 02:24:06;;;;;;;41.20;22.35;;;6.80;90.10;;;;;;5072809;28;20047;-76
2021/11/16 02:26:32;;;;;;;39.42;22.80;;;6.80;90.00;;;;;;5060072;28;20091;-78
2021/11/16 02:28:58;;;;;;;42.53;22.98;;;6.70;90.00;;;;;;5067591;28;20455;-78
2021/11/16 02:31:24;;;;;;;44.42;22.90;;;6.80;90.10;;;;;;5073526;28;20395;-77
2021/11/16 02:33:51;;;;;;;41.20;22.95;;;6.80;90.10;;;;;;5069673;28;20035;-78
2021/11/16 02:36:18;;;;;;;37.72;21.63;;;6.80;90.10;;;;;;5061468;28;20051;-76
2021/11/16 02:38:44;;;;;;;42.30;23.63;;;6.80;90.10;;;;;;5082772;28;20036;-77
2021/11/16 02:41:10;;;;;;;41.60;22.58;;;6.80;90.10;;;;;;5072202;28;20040;-77
2021/11/16 02:43:37;;;;;;;38.95;21.25;;;6.80;90.10;;;;;;5095664;28;20043;-77
2021/11/16 02:46:03;;;;;;;41.28;22.13;;;6.70;89.60;;;;;;5073638;28;20056;-76
2021/11/16 02:48:30;;;;;;;41.15;23.23;;;6.60;89.60;;;;;;5079044;28;21396;-77
2021/11/16 02:50:59;;;;;;;42.17;22.98;;;6.70;89.90;;;;;;5080943;28;20036;-77
2021/11/16 02:53:25;;;;;;;44.47;23.92;;;6.60;89.90;;;;;;5076404;28;20039;-77
2021/11/16 02:55:51;;;;;;;47.22;24.50;;;6.70;90.00;;;;;;5083082;28;20040;-75
2021/11/16 02:58:19;;;;;;;40.35;21.42;;;6.70;90.00;;;;;;5078357;28;20184;-78
2021/11/16 03:00:50;;;;;;;43.88;23.58;;;6.70;90.10;;;;;;5084674;28;20035;-75
2021/11/16 03:03:20;;;;;;;45.92;23.77;;;6.70;90.10;;;;;;5075670;28;20080;-75
2021/11/16 03:05:46;;;;;;;45.85;24.27;;;6.70;90.20;;;;;;5084633;28;20028;-78
2021/11/16 03:08:21;;;;;;;41.60;22.80;;;6.70;90.00;;;;;;5077223;28;20039;-76
2021/11/16 03:10:49;;;;;;;44.38;22.92;;;6.70;90.00;;;;;;5079452;28;20527;-76
2021/11/16 03:13:15;;;;;;;43.58;23.38;;;6.70;90.10;;;;;;5079208;28;20033;-76
2021/11/16 03:15:41;;;;;;;42.33;23.40;;;6.70;90.10;;;;;;5084333;27;20048;-75
2021/11/16 03:18:08;;;;;;;41.85;23.50;;;6.70;90.10;;;;;;5075355;28;20037;-77
2021/11/16 03:20:35;;;;;;;39.80;21.50;;;6.70;90.20;;;;;;5079170;28;20040;-75
2021/11/16 03:23:13;;;;;;;41.40;22.08;;;6.70;90.20;;;;;;5078234;27;20032;-76
2021/11/16 03:25:47;;;;;;;44.70;23.85;;;6.70;90.20;;;;;;5076550;28;20519;-80
2021/11/16 03:28:13;;;;;;;42.63;23.35;;;6.70;90.30;;;;;;5079028;27;20047;-76
2021/11/16 03:30:39;;;;;;;46.08;25.17;;;6.70;90.30;;;;;;5080151;28;20036;-76
2021/11/16 03:33:05;;;;;;;42.58;24.48;;;6.60;90.10;;;;;;5082054;28;20036;-77
2021/11/16 03:35:32;;;;;;;50.97;26.30;;;6.60;90.20;;;;;;5082591;28;20131;-75
2021/11/16 03:37:59;;;;;;;43.33;24.42;;;6.50;89.70;;;;;;5078757;28;20478;-77
2021/11/16 03:40:27;;;;;;;43.00;24.77;;;6.50;90.10;;;;;;5081848;28;20059;-77
2021/11/16 03:42:54;;;;;;;43.85;23.23;;;6.50;90.10;;;;;;5081800;28;20039;-76
2021/11/16 03:45:24;;;;;;;45.28;24.65;;;6.60;90.10;;;;;;5076378;28;20479;-75
2021/11/16 03:47:51;;;;;;;46.42;23.98;;;6.50;90.10;;;;;;5073008;28;20497;-76
2021/11/16 03:50:20;;;;;;;42.15;23.30;;;6.50;90.10;;;;;;5095547;28;20036;-76
2021/11/16 03:52:52;;;;;;;45.90;24.38;;;6.50;90.30;;;;;;5069175;28;20497;-77
2021/11/16 03:55:18;;;;;;;45.97;25.20;;;6.50;90.30;;;;;;5060821;28;20041;-79
2021/11/16 03:57:45;;;;;;;46.80;25.35;;;6.40;90.10;;;;;;5066078;28;20032;-75
2021/11/16 04:00:19;;;;;;;49.90;27.27;;;6.40;90.20;;;;;;5061271;28;20048;-76
2021/11/16 04:02:45;;;;;;;47.88;24.95;;;6.40;90.20;;;;;;5071103;28;20032;-76
2021/11/16 04:05:12;;;;;;;44.63;22.92;;;6.50;90.30;;;;;;5077611;28;20495;-77
2021/11/16 04:07:37;;;;;;;50.55;26.80;;;6.50;90.40;;;;;;5082216;28;20037;-76
2021/11/16 04:10:13;;;;;;;48.92;26.25;;;6.40;90.20;;;;;;5070067;28;20040;-76
2021/11/16 04:12:40;;;;;;;44.97;24.75;;;6.40;90.20;;;;;;5063203;28;20056;-76
2021/11/16 04:15:07;;;;;;;44.58;24.75;;;6.40;90.40;;;;;;5061704;28;20080;-78
2021/11/16 04:17:33;;;;;;;46.15;25.08;;;6.50;90.40;;;;;;5065166;28;20029;-75
2021/11/16 04:20:00;;;;;;;46.50;25.67;;;6.50;90.50;;;;;;5061443;28;20082;-76
2021/11/16 04:22:27;;;;;;;47.33;24.95;;;6.50;90.50;;;;;;5083415;28;20068;-75
2021/11/16 04:24:53;;;;;;;54.15;24.95;;;6.50;90.50;;;;;;5081979;28;20036;-75
2021/11/16 04:27:19;;;;;;;46.63;24.77;;;6.60;90.60;;;;;;5076535;28;20387;-77
2021/11/16 04:29:45;;;;;;;43.40;24.23;;;6.60;90.60;;;;;;5077603;28;20067;-76
2021/11/16 04:32:10;;;;;;;47.33;25.88;;;6.60;90.50;;;;;;5081349;28;20029;-75
2021/11/16 04:34:36;;;;;;;46.95;24.92;;;6.60;90.50;;;;;;5084311;28;20044;-75
2021/11/16 04:37:02;;;;;;;45.70;25.73;;;6.60;90.50;;;;;;5079792;28;20077;-76
2021/11/16 04:39:28;;;;;;;45.17;25.02;;;6.70;90.40;;;;;;5084693;28;21681;-75
2021/11/16 04:41:54;;;;;;;44.10;24.90;;;6.60;90.30;;;;;;5080413;28;20040;-77
2021/11/16 04:44:19;;;;;;;45.58;25.15;;;6.60;90.20;;;;;;5080135;28;20423;-77
2021/11/16 04:46:46;;;;;;;42.10;24.85;;;6.70;90.30;;;;;;5082075;28;20039;-76
2021/11/16 05:02:34;;;;;;;44.25;24.65;;;6.70;90.30;;;;;;5080719;27;20124;-76
2021/11/16 05:03:09;;;;;;;43.45;23.80;;;6.70;90.20;;;;;;5078091;28;20387;-81
2021/11/16 05:05:35;;;;;;;46.17;24.73;;;6.70;90.20;;;;;;5082359;28;20036;-78
2021/11/16 05:08:02;;;;;;;43.53;25.48;;;6.70;90.20;;;;;;5086606;28;20120;-78
2021/11/16 05:10:28;;;;;;;45.58;25.13;;;6.70;90.20;;;;;;5070817;28;20036;-78
2021/11/16 05:12:57;;;;;;;45.30;24.73;;;6.70;90.20;;;;;;5072814;28;20034;-76
2021/11/16 05:15:24;;;;;;;45.25;25.85;;;6.70;90.20;;;;;;5071474;28;20052;-77
2021/11/16 05:17:50;;;;;;;43.30;24.02;;;6.60;90.10;;;;;;5086639;28;20049;-76
2021/11/16 05:20:18;;;;;;;47.85;25.85;;;6.60;90.10;;;;;;5069270;28;20044;-76
2021/11/16 05:22:45;;;;;;;44.40;24.67;;;6.60;90.10;;;;;;5068171;28;20456;-77
2021/11/16 05:25:12;;;;;;;44.10;26.10;;;6.60;90.20;;;;;;5081419;28;20043;-76
2021/11/16 05:27:39;;;;;;;48.92;26.23;;;6.60;90.20;;;;;;5066998;28;20033;-76
2021/11/16 05:30:08;;;;;;;46.45;25.10;;;6.60;90.30;;;;;;5082345;28;20051;-79
2021/11/16 05:32:35;;;;;;;48.40;25.70;;;6.60;90.30;;;;;;5074736;28;20028;-76
2021/11/16 05:35:01;;;;;;;50.30;27.70;;;6.60;90.40;;;;;;5073902;28;20160;-76
2021/11/16 05:37:26;;;;;;;50.60;26.88;;;6.60;90.30;;;;;;5061041;28;20044;-78
2021/11/16 05:39:52;;;;;;;50.40;26.15;;;6.60;90.30;;;;;;5075565;28;20346;-76
2021/11/16 05:42:21;;;;;;;52.67;27.80;;;6.60;90.40;;;;;;5063674;28;20028;-77
2021/11/16 05:44:51;;;;;;;51.45;27.73;;;6.60;90.50;;;;;;5058181;28;20476;-77
2021/11/16 05:47:17;;;;;;;55.50;27.80;;;6.60;90.60;;;;;;5078957;27;20035;-76
2021/11/16 05:49:42;;;;;;;51.88;27.83;;;6.60;90.70;;;;;;5061272;28;20036;-81
2021/11/16 05:52:08;;;;;;;51.70;26.30;;;6.60;90.70;;;;;;5061206;28;20380;-77
2021/11/16 05:54:34;;;;;;;54.40;29.13;;;6.60;90.80;;;;;;5059894;28;20036;-77
2021/11/16 05:57:06;;;;;;;51.40;28.40;;;6.70;90.80;;;;;;5062243;28;20116;-77
2021/11/16 05:59:34;;;;;;;50.42;27.92;;;6.60;90.70;;;;;;5065099;28;20499;-77
2021/11/16 06:02:05;;;;;;;56.60;31.08;;;6.60;90.60;;;;;;5060932;28;20108;-78
2021/11/16 06:04:33;;;;;;;52.85;28.98;;;6.60;90.60;;;;;;5062109;28;20113;-76
2021/11/16 06:07:00;;;;;;;50.35;27.52;;;6.60;90.60;;;;;;5064868;28;20020;-77
2021/11/16 06:09:26;;;;;;;52.40;28.27;;;6.60;90.60;;;;;;5083182;28;20034;-77
2021/11/16 06:11:56;;;;;;;53.42;28.20;;;6.60;90.60;;;;;;5081904;28;20020;-76
2021/11/16 06:14:21;;;;;;;48.72;25.77;;;6.60;90.70;;;;;;5080463;27;20052;-77
2021/11/16 06:16:47;;;;;;;51.35;27.67;;;6.60;90.70;;;;;;5080247;28;20054;-77
2021/11/16 06:19:16;;;;;;;46.65;26.77;;;6.60;90.70;;;;;;5072289;28;20029;-77
2021/11/16 06:21:42;;;;;;;54.45;29.85;;;6.60;90.70;;;;;;5077000;28;20286;-76
2021/11/16 06:24:08;;;;;;;58.53;31.27;;;6.60;90.60;;;;;;5073908;28;20102;-78
2021/11/16 06:26:34;;;;;;;53.22;28.23;;;6.60;90.60;;;;;;5071003;28;20024;-77
2021/11/16 06:29:02;;;;;;;53.28;29.67;;;6.60;90.60;;;;;;5074954;28;20048;-76
2021/11/16 06:31:29;;;;;;;53.85;28.48;;;6.60;90.60;;;;;;5074504;28;20044;-77
2021/11/16 06:34:00;;;;;;;54.63;29.05;;;6.60;90.70;;;;;;5065076;28;20037;-77
2021/11/16 06:36:32;;;;;;;52.17;28.13;;;6.60;90.60;;;;;;5083718;28;20640;-74
2021/11/16 06:38:59;;;;;;;52.60;27.77;;;6.60;90.60;;;;;;5075497;28;20036;-74
2021/11/16 06:41:24;;;;;;;55.08;29.55;;;6.60;90.50;;;;;;5077006;28;20060;-74
2021/11/16 06:43:50;;;;;;;55.17;28.95;;;6.70;90.60;;;;;;5063266;28;20057;-82
2021/11/16 06:46:16;;;;;;;53.38;28.65;;;6.70;90.60;;;;;;5075459;28;20105;-74
2021/11/16 06:48:42;;;;;;;54.25;29.02;;;6.70;90.60;;;;;;5084933;28;20035;-73
2021/11/16 06:51:07;;;;;;;55.95;29.80;;;6.70;90.60;;;;;;5069569;27;20511;-73
2021/11/16 06:53:35;;;;;;;57.50;29.65;;;6.70;90.60;;;;;;5066927;28;20544;-75
2021/11/16 06:56:04;;;;;;;54.83;28.25;;;6.70;90.40;;;;;;5056218;28;20049;-73
2021/11/16 06:58:30;;;;;;;50.53;27.95;;;6.70;90.50;;;;;;5061233;28;20028;-74
2021/11/16 07:00:56;;;;;;;55.13;29.40;;;6.70;90.50;;;;;;5074970;28;20035;-73
2021/11/16 07:03:23;;;;;;;56.22;29.55;;;6.70;90.40;;;;;;5077099;28;20040;-73
2021/11/16 07:05:53;;;;;;;51.95;28.88;;;6.70;90.30;;;;;;5081409;28;20047;-75
2021/11/16 07:08:40;;;;;;;56.35;28.88;;;6.70;90.40;;;;;;5075338;28;20032;-74
2021/11/16 07:11:19;;;;;;;49.17;28.00;;;6.70;90.50;;;;;;5077623;28;20085;-75
2021/11/16 07:13:56;;;;;;;57.78;29.88;;;6.70;90.60;;;;;;5076699;28;20044;-73
2021/11/16 07:16:24;;;;;;;57.85;29.98;;;6.70;90.60;;;;;;5082361;28;20052;-76
2021/11/16 07:18:52;;;;;;;60.70;31.52;;;6.60;90.40;;;;;;5087562;28;20037;-73
2021/11/16 07:21:21;;;;;;;52.47;29.15;;;6.60;90.40;;;;;;5061673;28;20473;-76
2021/11/16 07:24:04;;;;;;;54.97;31.85;;;6.70;90.60;;;;;;5063696;28;20041;-74
2021/11/16 07:26:31;;;;;;;56.90;31.08;;;6.70;90.60;;;;;;5057342;28;20037;-75
2021/11/16 07:28:57;;;;;;;59.78;31.60;;;6.70;90.60;;;;;;5058224;28;20076;-75
2021/11/16 07:31:25;;;;;;;60.28;30.13;;;6.70;90.60;;;;;;5061936;28;20147;-74
2021/11/16 07:33:51;;;;;;;59.42;29.90;;;6.70;90.50;;;;;;5062698;28;20103;-75
2021/11/16 07:36:18;;;;;;;61.47;31.75;;;6.70;90.50;;;;;;5059801;28;20036;-74
2021/11/16 07:38:51;;;;;;;62.50;32.22;;;6.70;90.50;;;;;;5059865;28;20401;-70
2021/11/16 07:41:24;;;;;;;55.78;30.10;;;6.80;90.60;;;;;;5061708;28;20493;-74
2021/11/16 07:43:51;;;;;;;57.00;31.05;;;6.70;90.70;;;;;;5086421;28;20043;-74
2021/11/16 07:46:17;;;;;;;55.10;29.25;;;6.80;90.60;;;;;;5074065;28;20560;-74
2021/11/16 07:48:43;;;;;;;56.40;32.03;;;6.90;90.40;;;;;;5075907;27;20056;-77
2021/11/16 07:51:12;;;;;;;60.85;31.27;;;7.00;90.20;;;;;;5069047;28;20094;-74
2021/11/16 07:53:47;;;;;;;63.72;32.55;;;7.10;89.90;;;;;;5072788;28;20040;-77
2021/11/16 07:56:19;;;;;;;60.00;30.00;;;7.00;89.70;;;;;;5063613;28;20080;-76
2021/11/16 07:58:47;;;;;;;58.47;30.85;;;7.00;89.30;;;;;;5061028;28;20490;-74
2021/11/16 08:04:07;;;;;;;61.60;30.17;;;7.00;89.30;;;;;;5070986;28;20044;-73
2021/11/16 08:06:39;;;;;;;66.43;32.13;;;7.00;89.40;;;;;;5078083;28;20032;-74
2021/11/16 08:09:58;;;;;;;63.75;31.25;;;7.10;89.30;;;;;;5070044;28;20383;-74
2021/11/16 08:14:37;;;;;;;62.05;29.98;;;7.10;89.30;;;;;;5061912;28;20040;-72
2021/11/16 08:17:06;;;;;;;61.97;31.52;;;7.10;89.30;;;;;;5077572;28;20051;-72
2021/11/16 08:19:35;;;;;;;62.30;30.48;;;7.10;89.10;;;;;;5070554;28;20515;-75
2021/11/16 08:22:08;;;;;;;60.50;30.42;;;7.10;89.10;;;;;;5059758;28;20025;-71
2021/11/16 08:24:38;;;;;;;64.82;32.78;;;7.20;89.20;;;;;;5081017;28;20028;-75
2021/11/16 08:27:17;;;;;;;69.55;37.30;;;7.10;89.10;;;;;;5077255;28;20062;-72
2021/11/16 08:29:48;;;;;;;62.03;32.70;;;7.20;89.10;;;;;;5076214;28;20091;-71
2021/11/16 08:32:20;;;;;;;62.13;33.35;;;7.20;89.10;;;;;;5079124;28;20044;-71
2021/11/16 08:34:48;;;;;;;72.57;36.55;;;7.20;89.00;;;;;;5078046;28;20458;-74
2021/11/16 08:37:16;;;;;;;65.72;35.47;;;7.20;88.80;;;;;;5082997;27;20020;-71
2021/11/16 08:39:53;;;;;;;62.53;32.47;;;7.20;89.00;;;;;;5082522;28;20036;-71
2021/11/16 08:42:23;;;;;;;74.20;37.40;;;7.20;88.80;;;;;;5062371;28;20048;-70
2021/11/16 08:45:12;;;;;;;65.95;37.05;;;7.30;88.70;;;;;;5057358;28;20028;-74
2021/11/16 08:47:52;;;;;;;68.38;34.70;;;7.20;88.50;;;;;;5061865;28;20036;-70
2021/11/16 08:50:36;;;;;;;75.47;38.17;;;7.20;88.40;;;;;;5057196;28;20036;-73
2021/11/16 08:53:12;;;;;;;67.47;35.20;;;7.10;88.30;;;;;;5059015;28;20080;-71
2021/11/16 08:55:40;;;;;;;66.43;34.05;;;7.10;88.30;;;;;;5062652;28;20285;-75
2021/11/16 08:58:12;;;;;;;62.88;32.22;;;7.10;88.30;;;;;;5066169;28;20367;-72
2021/11/16 09:00:45;;;;;;;66.65;33.72;;;7.10;88.30;;;;;;5059102;28;20111;-72
2021/11/16 09:03:20;;;;;;;64.40;31.80;;;7.10;88.50;;;;;;5059430;28;20463;-74
2021/11/16 09:05:48;;;;;;;62.70;30.50;;;7.20;88.50;;;;;;5061369;28;20874;-70
2021/11/16 09:08:26;;;;;;;66.43;33.38;;;7.20;88.10;;;;;;5062467;28;20125;-72
2021/11/16 09:11:15;;;;;;;59.92;31.42;;;7.20;87.90;;;;;;5063958;28;20493;-72
2021/11/16 09:13:42;;;;;;;65.80;33.28;;;7.20;87.90;;;;;;5063863;28;20033;-72
2021/11/16 09:16:18;;;;;;;61.63;31.98;;;7.20;87.80;;;;;;5066948;28;20088;-77
2021/11/16 09:18:50;;;;;;;57.78;30.50;;;7.10;87.70;;;;;;5051065;28;20384;-71
2021/11/16 09:21:34;;;;;;;58.15;29.92;;;7.10;87.50;;;;;;5057824;28;20036;-72
2021/11/16 09:24:00;;;;;;;54.55;28.95;;;7.20;87.60;;;;;;5036164;28;20029;-70
2021/11/16 09:29:07;;;;;;;62.22;31.05;;;7.20;87.20;;;;;;5041503;28;20090;-70
2021/11/16 09:31:37;;;;;;;56.38;28.58;;;7.30;87.20;;;;;;5063591;28;20032;-72
2021/11/16 09:34:06;;;;;;;61.83;30.52;;;7.30;87.20;;;;;;5051024;28;20044;-72
2021/11/16 09:36:36;;;;;;;53.72;28.08;;;7.30;86.90;;;;;;5046446;28;20159;-71
2021/11/16 09:39:18;;;;;;;52.70;27.23;;;7.40;87.10;;;;;;5041281;28;20119;-71
2021/11/16 09:41:46;;;;;;;57.03;29.83;;;7.50;86.80;;;;;;5042726;28;20419;-71
2021/11/16 09:44:28;;;;;;;57.90;28.92;;;7.50;86.80;;;;;;5056035;28;20041;-72
2021/11/16 09:46:59;;;;;;;55.08;27.88;;;7.50;86.50;;;;;;5046173;28;20116;-75
2021/11/16 09:49:32;;;;;;;57.78;30.02;;;7.50;86.30;;;;;;5044472;28;20476;-71
2021/11/16 09:52:06;;;;;;;53.58;27.73;;;7.50;86.40;;;;;;5042706;28;20036;-73
2021/11/16 09:54:44;;;;;;;52.25;28.52;;;7.60;86.50;;;;;;5045286;28;20045;-71
2021/11/16 09:57:13;;;;;;;55.90;30.02;;;7.60;86.50;;;;;;5044893;28;20056;-71
2021/11/16 09:59:41;;;;;;;54.75;30.77;;;7.60;86.30;;;;;;5044317;28;20123;-70
2021/11/16 10:02:13;;;;;;;55.15;29.05;;;7.60;86.10;;;;;;5042308;28;20041;-74
2021/11/16 10:04:46;;;;;;;56.28;28.85;;;7.60;86.10;;;;;;5040276;28;20626;-73
2021/11/16 10:07:11;;;;;;;53.33;27.83;;;7.70;86.20;;;;;;5044821;28;20028;-72
2021/11/16 10:09:41;;;;;;;53.67;29.73;;;7.50;86.90;;;;;;5042966;28;20842;-71
2021/11/16 10:12:08;;;;;;;56.03;29.00;;;7.50;86.80;;;;;;5041808;28;20506;-72
2021/11/16 10:14:33;;;;;;;57.97;29.08;;;7.40;86.90;;;;;;5041726;28;20068;-72
2021/11/16 10:16:59;;;;;;;54.92;28.17;;;7.40;87.00;;;;;;5046097;28;20121;-71
2021/11/16 10:19:25;;;;;;;58.55;28.65;;;7.40;87.00;;;;;;5045572;28;20029;-74
2021/11/16 10:21:50;;;;;;;51.97;27.48;;;7.40;87.10;;;;;;5044094;28;20130;-73
2021/11/16 10:24:34;;;;;;;53.47;25.52;;;7.40;87.10;;;;;;5046039;28;20510;-70
2021/11/16 10:27:23;;;;;;;51.50;26.20;;;7.30;86.90;;;;;;5046566;28;20036;-72
2021/11/16 10:30:09;;;;;;;50.60;25.42;;;7.30;86.80;;;;;;5039602;28;20045;-69
2021/11/16 10:32:35;;;;;;;50.17;25.48;;;7.20;87.30;;;;;;5036389;28;20527;-71
2021/11/16 10:35:16;;;;;;;51.97;25.08;;;7.20;87.10;;;;;;5038083;28;20049;-72
2021/11/16 10:37:52;;;;;;;52.97;26.02;;;7.20;87.10;;;;;;5043895;28;20103;-70
2021/11/16 10:40:20;;;;;;;56.33;26.95;;;7.20;87.40;;;;;;5028893;28;20026;-69
2021/11/16 10:42:48;;;;;;;51.78;25.55;;;7.30;87.50;;;;;;5043197;28;20392;-69
2021/11/16 10:45:16;;;;;;;51.63;26.75;;;7.30;87.60;;;;;;5043444;28;20037;-69
2021/11/16 10:47:44;;;;;;;49.63;26.77;;;7.30;87.60;;;;;;5044971;28;20108;-69
2021/11/16 10:50:12;;;;;;;54.58;27.20;;;7.30;87.60;;;;;;5042298;28;20127;-71
2021/11/16 10:52:38;;;;;;;57.28;27.58;;;7.30;87.70;;;;;;5036679;28;20123;-71
2021/11/16 10:55:09;;;;;;;53.88;27.05;;;7.30;87.50;;;;;;5040617;28;20048;-70
2021/11/16 10:57:55;;;;;;;51.05;25.50;;;7.30;87.50;;;;;;5039807;28;20041;-70
2021/11/16 11:00:33;;;;;;;50.72;26.92;;;7.20;87.30;;;;;;5040898;28;22977;-70
2021/11/16 11:03:26;;;;;;;45.35;23.25;;;7.30;87.30;;;;;;5042492;28;20041;-69
2021/11/16 11:05:59;;;;;;;50.00;25.80;;;7.50;87.50;;;;;;5038053;28;20040;-70
2021/11/16 11:08:59;;;;;;;48.77;25.30;;;7.50;87.00;;;;;;5043892;28;20029;-71
2021/11/16 11:11:37;;;;;;;48.35;25.85;;;7.60;87.00;;;;;;5037984;28;20376;-71
2021/11/16 11:14:18;;;;;;;51.17;24.88;;;7.60;87.00;;;;;;5039868;28;20047;-70
2021/11/16 11:16:53;;;;;;;47.42;23.55;;;7.60;87.00;;;;;;5044849;28;20067;-70
2021/11/16 11:19:25;;;;;;;49.58;25.02;;;7.60;86.80;;;;;;5039974;28;20021;-70
2021/11/16 11:22:03;;;;;;;53.95;26.10;;;7.60;86.80;;;;;;5044129;28;20055;-70
2021/11/16 11:24:44;;;;;;;45.45;23.63;;;7.50;86.30;;;;;;5045522;28;20037;-70
2021/11/16 11:27:27;;;;;;;45.53;23.85;;;7.60;86.70;;;;;;5039294;28;20033;-70
2021/11/16 11:29:57;;;;;;;44.97;22.23;;;7.60;86.50;;;;;;5047307;28;20032;-72
2021/11/16 11:32:26;;;;;;;42.30;21.73;;;7.50;86.30;;;;;;5034196;28;20033;-71
2021/11/16 11:35:11;;;;;;;49.17;24.42;;;7.60;86.40;;;;;;5038233;28;20030;-71
2021/11/16 11:37:44;;;;;;;43.22;23.23;;;7.60;86.00;;;;;;5053789;28;20056;-70
2021/11/16 11:40:21;;;;;;;43.08;22.38;;;7.60;86.20;;;;;;5061692;28;20433;-73
2021/11/16 11:42:56;;;;;;;44.70;21.92;;;7.50;85.70;;;;;;5055615;28;20037;-70
2021/11/16 11:45:44;;;;;;;46.58;22.83;;;7.50;86.10;;;;;;5062883;28;20039;-70
2021/11/16 11:48:21;;;;;;;47.78;23.40;;;7.50;86.00;;;;;;5058707;28;20483;-71
2021/11/16 11:50:53;;;;;;;45.83;23.88;;;7.50;86.30;;;;;;5058649;28;20491;-70
2021/11/16 11:53:21;;;;;;;47.42;23.27;;;7.60;86.50;;;;;;5054339;28;20116;-71
2021/11/16 11:56:09;;;;;;;45.42;23.30;;;7.60;86.30;;;;;;5059672;28;20041;-70
2021/11/16 11:58:38;;;;;;;43.63;22.38;;;7.50;86.30;;;;;;5055701;28;20024;-71
2021/11/16 12:01:07;;;;;;;43.13;22.20;;;7.50;86.60;;;;;;5060524;28;20479;-73
2021/11/16 12:03:34;;;;;;;40.97;21.85;;;7.50;86.30;;;;;;5061937;28;20035;-70
2021/11/16 12:06:00;;;;;;;48.33;23.67;;;7.60;86.40;;;;;;5060160;28;20055;-70
2021/11/16 12:08:26;;;;;;;43.80;22.95;;;7.60;86.30;;;;;;5054937;28;20484;-71
2021/11/16 12:10:53;;;;;;;43.47;22.40;;;7.60;86.60;;;;;;5036003;28;20049;-70
2021/11/16 12:13:24;;;;;;;45.25;24.55;;;7.60;86.50;;;;;;5039415;28;20542;-71
2021/11/16 12:15:57;;;;;;;44.28;22.02;;;7.60;86.40;;;;;;5039618;28;20485;-69
2021/11/16 12:18:41;;;;;;;46.15;23.73;;;7.60;86.20;;;;;;5037879;28;20032;-75
2021/11/16 12:21:29;;;;;;;40.88;21.52;;;7.60;86.30;;;;;;5039679;28;20480;-70
2021/11/16 12:24:06;;;;;;;46.97;22.55;;;7.50;86.20;;;;;;5038477;28;20033;-70
2021/11/16 12:26:35;;;;;;;45.90;21.60;;;7.50;86.60;;;;;;5061500;28;20036;-72
2021/11/16 12:29:17;;;;;;;39.63;20.58;;;7.50;86.70;;;;;;5058151;28;20538;-73
2021/11/16 12:31:46;;;;;;;48.38;21.80;;;7.50;86.50;;;;;;5045043;28;20547;-70
2021/11/16 12:34:32;;;;;;;45.17;23.67;;;7.60;86.20;;;;;;5054022;28;20045;-73
2021/11/16 12:36:58;;;;;;;45.92;21.67;;;7.50;86.30;;;;;;5051548;28;20115;-70
2021/11/16 12:39:25;;;;;;;39.70;20.80;;;7.50;86.40;;;;;;5038175;28;21551;-68
2021/11/16 12:42:17;;;;;;;46.97;21.85;;;7.60;86.70;;;;;;5041382;28;20028;-68
2021/11/16 12:45:07;;;;;;;43.60;22.20;;;7.60;86.10;;;;;;5058759;28;20384;-69
2021/11/16 12:47:33;;;;;;;39.83;20.67;;;7.60;86.20;;;;;;5066932;28;20392;-69
2021/11/16 12:50:14;;;;;;;43.35;22.08;;;7.60;86.00;;;;;;5066427;28;20035;-68
2021/11/16 12:52:46;;;;;;;41.10;21.75;;;7.60;86.10;;;;;;5062022;28;20458;-68
2021/11/16 12:55:25;;;;;;;47.53;22.98;;;7.60;86.20;;;;;;5066085;28;20044;-69
2021/11/16 12:57:53;;;;;;;43.05;22.42;;;7.60;86.00;;;;;;5063578;28;20383;-69
2021/11/16 13:00:35;;;;;;;39.67;19.58;;;7.60;85.80;;;;;;5065386;28;20601;-70
2021/11/16 13:03:03;;;;;;;44.53;22.20;;;7.60;85.80;;;;;;5062095;28;20032;-68
2021/11/16 13:06:10;;;;;;;45.63;22.98;;;7.60;85.90;;;;;;5065005;28;20816;-69
2021/11/16 13:08:37;;;;;;;44.47;22.30;;;7.60;86.10;;;;;;5064705;28;20388;-68
2021/11/16 13:11:03;;;;;;;43.97;22.75;;;7.60;85.90;;;;;;5062589;28;20102;-69